Time;durP1;ratioP1;P1;durP2;ratioP2;P2;SDS_P1;SDS_P2;PMS_P1;PMS_P2;Temp;Humidity;BMP_temperature;BMP_pressure;BME280_temperature;BME280_humidity;BME280_pressure;Samples;Min_cycle;Max_cycle;Signal;HPM_P1;HPM_P2
2021/03/13 00:01:13;;;;;;;;;26.33;24.33;;;;;1.07;60.75;101649.72;4879083;29;8895;-80
2021/03/13 00:04:08;;;;;;;;;35.33;28.67;;;;;1.16;61.29;101644.72;4866128;29;8884;-81
2021/03/13 00:07:04;;;;;;;;;27.00;27.00;;;;;0.88;63.32;101654.53;4847692;29;8897;-80
2021/03/13 00:09:59;;;;;;;;;23.67;22.67;;;;;0.83;63.75;101636.19;4848160;29;8854;-80
2021/03/13 00:12:55;;;;;;;;;28.33;25.67;;;;;0.82;63.82;101650.06;4861274;29;8881;-79
2021/03/13 00:15:50;;;;;;;;;26.33;26.33;;;;;0.91;64.77;101634.16;4847747;29;8894;-79
2021/03/13 00:18:46;;;;;;;;;28.00;28.00;;;;;0.80;65.83;101642.13;4860617;29;8882;-79
2021/03/13 00:21:41;;;;;;;;;26.33;26.33;;;;;0.79;66.29;101636.94;4860131;29;8893;-80
2021/03/13 00:24:37;;;;;;;;;27.33;27.33;;;;;0.78;66.28;101640.75;4862285;29;8866;-79
2021/03/13 00:27:45;;;;;;;;;22.67;22.67;;;;;0.74;67.05;101629.50;4861748;29;8862;-80
2021/03/13 00:30:44;;;;;;;;;35.67;35.33;;;;;0.80;66.91;101625.78;4859800;29;8989;-80
2021/03/13 00:33:42;;;;;;;;;33.33;31.67;;;;;0.72;66.62;101625.38;4847405;29;9062;-79
2021/03/13 00:36:38;;;;;;;;;30.33;26.67;;;;;0.76;66.92;101631.97;4875819;29;9621;-79
2021/03/13 00:39:33;;;;;;;;;28.33;27.67;;;;;0.75;66.87;101622.97;4874454;29;8875;-80
2021/03/13 00:42:29;;;;;;;;;33.00;30.67;;;;;0.58;67.86;101613.09;4871684;29;8986;-80
2021/03/13 00:45:26;;;;;;;;;34.33;32.33;;;;;0.71;67.27;101616.38;4877880;29;9630;-80
2021/03/13 00:48:22;;;;;;;;;34.00;34.00;;;;;0.59;67.92;101620.19;4866186;29;8864;-80
2021/03/13 00:51:17;;;;;;;;;36.00;30.00;;;;;0.57;68.42;101617.72;4866508;29;8871;-79
2021/03/13 00:54:13;;;;;;;;;31.33;31.33;;;;;0.68;68.16;101611.38;4873053;29;9010;-79
2021/03/13 00:57:09;;;;;;;;;26.67;26.67;;;;;0.57;68.24;101615.00;4848309;29;8969;-79
2021/03/13 01:00:17;;;;;;;;;30.33;30.33;;;;;0.49;68.46;101604.50;4860880;29;8874;-79
2021/03/13 01:03:13;;;;;;;;;29.67;28.67;;;;;0.45;68.53;101598.69;4859472;29;8882;-78
2021/03/13 01:06:09;;;;;;;;;29.67;29.67;;;;;0.46;68.42;101604.94;4872658;29;8898;-79
2021/03/13 01:09:05;;;;;;;;;37.67;33.00;;;;;0.54;67.93;101599.16;4877923;29;8947;-78
2021/03/13 01:12:02;;;;;;;;;22.00;21.33;;;;;0.62;67.67;101596.06;4879012;29;8884;-79
2021/03/13 01:14:58;;;;;;;;;34.67;31.00;;;;;0.66;67.13;101586.31;4877807;29;8940;-79
2021/03/13 01:17:54;;;;;;;;;28.33;26.33;;;;;0.55;67.28;101585.28;4853148;29;9617;-78
2021/03/13 01:20:51;;;;;;;;;24.33;24.33;;;;;0.56;67.19;101588.84;4867220;29;8864;-78
2021/03/13 01:23:46;;;;;;;;;33.67;32.33;;;;;0.40;67.88;101582.28;4865569;29;8859;-79
2021/03/13 01:26:42;;;;;;;;;33.67;30.67;;;;;0.42;67.82;101571.97;4848683;29;8897;-78
2021/03/13 01:29:37;;;;;;;;;41.33;41.33;;;;;0.49;67.50;101585.44;4859218;29;8921;-79
2021/03/13 01:32:34;;;;;;;;;36.33;34.67;;;;;0.53;66.79;101584.69;4860408;29;9000;-78
2021/03/13 01:35:32;;;;;;;;;33.00;31.33;;;;;0.51;66.93;101589.56;4861388;29;8888;-79
2021/03/13 01:38:29;;;;;;;;;38.33;36.67;;;;;0.33;67.79;101584.31;4859412;29;8954;-79
2021/03/13 01:41:24;;;;;;;;;33.00;31.67;;;;;0.44;67.54;101579.88;4851149;29;8863;-80
2021/03/13 01:44:20;;;;;;;;;29.33;25.00;;;;;0.42;67.02;101577.41;4867404;29;8879;-79
2021/03/13 01:47:22;;;;;;;;;32.33;28.00;;;;;0.44;67.48;101582.59;4878595;29;9011;-79
2021/03/13 01:50:18;;;;;;;;;32.33;29.33;;;;;0.41;67.48;101583.09;4848202;29;8854;-79
2021/03/13 01:53:14;;;;;;;;;28.00;28.00;;;;;0.48;67.31;101583.78;4847119;29;8870;-79
2021/03/13 01:55:41;;;;;;;;;34.00;33.67;;;;;0.53;66.94;101579.25;4855546;29;8888;-80
2021/03/13 01:58:37;;;;;;;;;24.33;24.33;;;;;0.58;66.65;101583.97;4868550;29;8891;-80
2021/03/13 02:01:32;;;;;;;;;31.67;25.67;;;;;0.51;67.32;101591.44;4880121;29;9624;-80
2021/03/13 02:04:28;;;;;;;;;31.00;30.67;;;;;0.42;66.66;101599.19;4877813;29;9003;-80
2021/03/13 02:07:32;;;;;;;;;31.00;31.00;;;;;0.52;66.49;101607.53;4849860;29;8883;-79
2021/03/13 02:10:34;;;;;;;;;32.33;30.67;;;;;0.53;66.59;101609.19;4849758;29;8894;-81
2021/03/13 02:14:08;;;;;;;;;26.33;25.33;;;;;0.37;67.09;101609.13;4850809;29;8886;-81
2021/03/13 02:17:19;;;;;;;;;30.67;27.67;;;;;0.39;67.18;101604.28;4862011;29;8882;-79
2021/03/13 02:20:52;;;;;;;;;34.67;34.67;;;;;0.62;66.64;101600.66;4862809;29;9062;-78
2021/03/13 02:24:26;;;;;;;;;28.33;27.33;;;;;0.50;66.41;101597.97;4849955;29;8882;-77
2021/03/13 02:27:27;;;;;;;;;30.00;22.00;;;;;0.40;66.44;101593.16;4857803;29;8897;-80
2021/03/13 02:30:25;;;;;;;;;33.33;25.00;;;;;0.43;66.92;101600.00;4862814;29;8894;-79
2021/03/13 02:33:35;;;;;;;;;27.33;25.00;;;;;0.49;66.47;101607.22;4861852;29;8913;-80
2021/03/13 02:36:34;;;;;;;;;24.00;24.00;;;;;0.41;67.31;101616.56;4849936;29;9625;-80
2021/03/13 02:39:32;;;;;;;;;30.00;26.00;;;;;0.52;67.23;101615.72;4849818;29;9001;-80
2021/03/13 02:42:30;;;;;;;;;29.33;27.67;;;;;0.51;67.97;101610.50;4869889;29;8895;-81
2021/03/13 02:45:30;;;;;;;;;21.33;21.33;;;;;0.34;69.08;101607.72;4863726;29;9615;-81
2021/03/13 02:48:30;;;;;;;;;28.33;25.33;;;;;0.15;69.51;101593.44;4864766;29;8880;-81
2021/03/13 02:51:27;;;;;;;;;29.33;26.33;;;;;0.28;69.32;101598.63;4863438;29;8867;-79
2021/03/13 02:54:25;;;;;;;;;23.67;22.67;;;;;0.36;69.68;101602.03;4880443;29;8910;-79
2021/03/13 02:57:22;;;;;;;;;27.33;27.33;;;;;0.37;70.79;101611.84;4848994;29;8910;-78
2021/03/13 03:00:21;;;;;;;;;29.67;29.67;;;;;0.38;70.34;101602.59;4849889;29;8898;-80
2021/03/13 03:03:19;;;;;;;;;33.67;33.67;;;;;0.47;70.09;101591.13;4855497;29;8975;-80
2021/03/13 03:06:18;;;;;;;;;25.00;25.00;;;;;0.41;71.09;101600.25;4849429;29;8886;-80
2021/03/13 03:09:14;;;;;;;;;28.67;25.33;;;;;0.47;71.28;101609.34;4852747;29;8862;-80
2021/03/13 03:12:12;;;;;;;;;27.33;26.33;;;;;0.45;71.05;101612.28;4871781;29;8907;-80
2021/03/13 03:15:08;;;;;;;;;30.00;29.67;;;;;0.40;71.71;101595.06;4850051;29;8874;-80
2021/03/13 03:18:10;;;;;;;;;31.33;30.67;;;;;0.46;71.66;101596.78;4861180;29;8886;-80
2021/03/13 03:21:07;;;;;;;;;32.33;30.67;;;;;0.43;71.84;101603.53;4870045;29;8867;-79
2021/03/13 03:24:04;;;;;;;;;25.67;25.67;;;;;0.51;72.60;101603.16;4880206;29;8880;-79
2021/03/13 03:27:15;;;;;;;;;34.00;31.00;;;;;0.43;72.58;101600.00;4879732;29;8918;-80
2021/03/13 03:30:11;;;;;;;;;29.67;29.33;;;;;0.49;72.80;101597.16;4862271;29;9302;-80
2021/03/13 03:33:07;;;;;;;;;37.00;37.00;;;;;0.53;72.51;101602.91;4852305;29;8929;-78
2021/03/13 03:36:04;;;;;;;;;28.00;28.00;;;;;0.38;73.15;101594.44;4865891;29;8906;-79
2021/03/13 03:39:00;;;;;;;;;30.00;27.67;;;;;0.34;73.42;101594.13;4863734;29;8909;-79
2021/03/13 03:42:01;;;;;;;;;29.33;28.33;;;;;0.45;73.59;101600.59;4848721;29;8871;-79
2021/03/13 03:45:00;;;;;;;;;30.67;26.33;;;;;0.50;73.55;101609.69;4852314;29;8882;-80
2021/03/13 03:47:56;;;;;;;;;37.33;35.33;;;;;0.37;73.97;101606.41;4861139;29;8885;-78
2021/03/13 03:50:52;;;;;;;;;29.33;27.67;;;;;0.40;73.99;101600.50;4860476;29;8945;-79
2021/03/13 03:53:50;;;;;;;;;27.33;24.67;;;;;0.47;74.12;101612.06;4849167;29;9024;-79
2021/03/13 03:56:47;;;;;;;;;36.33;30.33;;;;;0.48;74.47;101608.28;4860474;29;8882;-79
2021/03/13 03:59:46;;;;;;;;;41.67;38.33;;;;;0.44;74.29;101598.94;4861589;29;9004;-78
2021/03/13 04:02:44;;;;;;;;;27.33;27.33;;;;;0.59;74.75;101601.13;4860707;29;8989;-78
2021/03/13 04:05:42;;;;;;;;;31.33;29.33;;;;;0.64;74.20;101596.63;4861583;29;8874;-79
2021/03/13 04:08:42;;;;;;;;;39.67;37.33;;;;;0.56;73.94;101591.56;4860178;29;8972;-79
2021/03/13 04:11:38;;;;;;;;;35.00;33.67;;;;;0.37;74.30;101582.72;4870980;29;8884;-79
2021/03/13 04:14:35;;;;;;;;;32.33;32.33;;;;;0.60;73.63;101592.72;4869062;29;8875;-78
2021/03/13 04:17:33;;;;;;;;;42.33;38.33;;;;;0.51;72.79;101588.72;4870167;29;8969;-79
2021/03/13 04:20:28;;;;;;;;;47.67;38.67;;;;;0.61;73.09;101585.38;4869890;29;8872;-79
2021/03/13 04:23:24;;;;;;;;;44.33;42.00;;;;;0.71;72.02;101594.59;4859884;29;8876;-79
2021/03/13 04:26:21;;;;;;;;;36.33;34.67;;;;;0.67;72.14;101582.50;4863936;29;8860;-78
2021/03/13 04:29:17;;;;;;;;;41.33;41.33;;;;;0.71;72.64;101580.97;4878949;29;8859;-79
2021/03/13 04:32:17;;;;;;;;;36.00;36.00;;;;;0.76;71.96;101585.66;4878271;29;8918;-79
2021/03/13 04:35:15;;;;;;;;;39.33;39.33;;;;;0.68;72.48;101577.91;4871508;29;9019;-79
2021/03/13 04:38:11;;;;;;;;;32.67;29.67;;;;;0.55;72.36;101566.25;4863140;29;8930;-80
2021/03/13 04:41:08;;;;;;;;;40.33;37.00;;;;;0.68;72.42;101576.00;4860834;29;8894;-80
2021/03/13 04:44:05;;;;;;;;;46.00;44.33;;;;;0.67;72.35;101563.44;4860907;29;8858;-79
2021/03/13 04:47:03;;;;;;;;;60.33;52.67;;;;;0.76;72.18;101561.16;4847875;29;8913;-78
2021/03/13 04:49:59;;;;;;;;;50.67;48.33;;;;;0.85;72.13;101554.28;4860327;29;8870;-80
2021/03/13 04:52:55;;;;;;;;;37.67;36.33;;;;;0.83;72.08;101546.31;4847747;29;9617;-79
2021/03/13 04:55:50;;;;;;;;;34.67;33.33;;;;;0.69;72.24;101542.28;4860924;29;8981;-79
2021/03/13 04:58:46;;;;;;;;;43.33;40.00;;;;;0.93;71.82;101548.41;4862473;29;8868;-79
2021/03/13 05:01:41;;;;;;;;;49.67;40.67;;;;;1.02;71.73;101552.38;4865527;29;8871;-79
2021/03/13 05:04:37;;;;;;;;;40.33;40.33;;;;;0.85;72.83;101557.00;4867471;29;8878;-78
2021/03/13 05:07:32;;;;;;;;;35.67;33.67;;;;;1.03;71.98;101561.38;4853072;29;8994;-81
2021/03/13 05:10:28;;;;;;;;;37.67;35.67;;;;;0.95;71.79;101561.78;4866603;29;8946;-80
2021/03/13 05:13:23;;;;;;;;;36.00;36.00;;;;;1.00;72.18;101564.63;4878871;29;8871;-80
2021/03/13 05:16:19;;;;;;;;;33.33;33.33;;;;;1.08;71.75;101575.09;4875076;29;8912;-81
2021/03/13 05:19:16;;;;;;;;;32.33;31.00;;;;;1.10;71.91;101586.56;4882745;29;8884;-79
2021/03/13 05:22:11;;;;;;;;;46.00;41.00;;;;;1.23;71.50;101583.53;4856172;29;8921;-79
2021/03/13 05:25:08;;;;;;;;;39.33;39.33;;;;;1.20;71.97;101575.00;4860869;29;8870;-80
2021/03/13 05:28:04;;;;;;;;;40.33;36.00;;;;;1.17;71.60;101583.69;4867353;29;8885;-78
2021/03/13 05:30:47;;;;;;;;;37.00;37.00;;;;;1.26;71.91;101587.66;4898403;29;8885;-78
2021/03/13 05:33:23;;;;;;;;;42.00;39.67;;;;;1.34;71.16;101585.34;4886358;29;8914;-77
2021/03/13 05:35:51;;;;;;;;;33.00;33.00;;;;;1.28;71.56;101580.06;4886618;29;8912;-77
2021/03/13 05:38:33;;;;;;;;;41.00;40.00;;;;;1.34;71.59;101585.34;4869864;29;8878;-78
2021/03/13 05:41:00;;;;;;;;;37.33;37.33;;;;;1.45;71.39;101590.94;4891313;29;8877;-78
2021/03/13 05:43:39;;;;;;;;;42.33;41.67;;;;;1.38;71.81;101585.66;4877940;29;9643;-78
2021/03/13 05:46:36;;;;;;;;;26.67;26.67;;;;;1.31;72.00;101607.66;4868283;29;8990;-78
2021/03/13 05:49:28;;;;;;;;;36.33;32.00;;;;;1.35;71.77;101606.06;4868772;29;8921;-78
2021/03/13 05:52:08;;;;;;;;;38.33;36.33;;;;;1.47;72.25;101605.19;4877031;29;8873;-79
2021/03/13 05:54:43;;;;;;;;;36.33;34.67;;;;;1.43;71.58;101607.56;4856536;29;8880;-79
2021/03/13 05:57:16;;;;;;;;;38.33;32.33;;;;;1.61;71.15;101611.94;4875314;29;8873;-79
2021/03/13 06:00:04;;;;;;;;;40.67;36.00;;;;;1.56;71.85;101601.78;4888405;29;8861;-79
2021/03/13 06:02:55;;;;;;;;;38.00;35.67;;;;;1.56;72.18;101612.69;4889548;29;8908;-77
2021/03/13 06:05:50;;;;;;;;;30.67;29.33;;;;;1.71;71.24;101625.75;4890907;29;8863;-79
2021/03/13 06:08:48;;;;;;;;;19.67;19.67;;;;;1.58;72.00;101621.44;4878718;29;8894;-79
2021/03/13 06:11:44;;;;;;;;;34.00;34.00;;;;;1.54;72.10;101619.47;4890251;29;8911;-78
2021/03/13 06:14:41;;;;;;;;;37.00;33.67;;;;;1.80;71.91;101626.97;4889908;29;8866;-79
2021/03/13 06:17:25;;;;;;;;;37.33;36.00;;;;;1.79;72.17;101622.59;4886727;29;8896;-82
2021/03/13 06:20:32;;;;;;;;;33.33;33.33;;;;;1.82;71.99;101632.19;4881176;29;8886;-80
2021/03/13 06:23:11;;;;;;;;;43.00;39.33;;;;;1.75;72.32;101624.16;4872098;29;9662;-80
2021/03/13 06:25:41;;;;;;;;;42.67;38.67;;;;;1.81;72.46;101623.16;4857128;29;8878;-81
2021/03/13 06:28:13;;;;;;;;;38.33;34.00;;;;;1.87;71.66;101632.25;4863142;29;8885;-80
2021/03/13 06:30:49;;;;;;;;;33.00;33.00;;;;;2.02;71.56;101629.75;4863013;29;9030;-79
2021/03/13 06:33:34;;;;;;;;;46.00;44.00;;;;;2.05;71.29;101631.97;4863368;29;9028;-80
2021/03/13 06:36:06;;;;;;;;;36.67;36.67;;;;;1.99;71.79;101623.97;4857154;29;8869;-81
2021/03/13 06:38:35;;;;;;;;;35.33;33.00;;;;;2.01;72.46;101635.47;4855848;29;9649;-81
2021/03/13 06:41:18;;;;;;;;;36.00;35.67;;;;;2.11;71.60;101620.06;4880191;29;8880;-81
2021/03/13 06:43:47;;;;;;;;;35.67;35.00;;;;;2.31;70.69;101619.53;4882387;29;8875;-80
2021/03/13 06:46:37;;;;;;;;;34.33;34.33;;;;;2.34;70.47;101626.38;4875171;29;8887;-80
2021/03/13 06:49:06;;;;;;;;;40.33;35.67;;;;;2.27;71.62;101640.19;4883904;29;8853;-79
2021/03/13 06:51:38;;;;;;;;;37.00;36.00;;;;;2.37;70.99;101629.41;4870674;29;8881;-82
2021/03/13 06:54:16;;;;;;;;;22.67;19.67;;;;;2.35;71.40;101639.75;4874852;29;8892;-81
2021/03/13 06:56:53;;;;;;;;;43.67;40.33;;;;;2.46;71.38;101649.75;4891423;29;8865;-82
2021/03/13 06:59:41;;;;;;;;;41.67;39.00;;;;;2.45;71.71;101641.78;4891475;29;9658;-84
2021/03/13 07:02:11;;;;;;;;;47.67;37.67;;;;;2.47;71.69;101639.66;4866895;29;8886;-84
2021/03/13 07:04:42;;;;;;;;;41.33;36.00;;;;;2.64;70.54;101640.41;4894722;29;8885;-82
2021/03/13 07:07:30;;;;;;;;;39.00;33.67;;;;;2.68;70.35;101640.72;4861606;29;8966;-84
2021/03/13 07:10:00;;;;;;;;;46.33;43.00;;;;;2.73;70.78;101638.03;4867552;29;8891;-84
2021/03/13 07:12:55;;;;;;;;;45.00;43.33;;;;;2.88;70.14;101640.13;4863852;29;8879;-83
2021/03/13 07:15:47;;;;;;;;;36.00;33.67;;;;;2.91;70.18;101651.34;4869391;29;8871;-84
2021/03/13 07:18:15;;;;;;;;;40.67;34.67;;;;;2.97;70.08;101653.06;4870624;29;8887;-83
2021/03/13 07:20:44;;;;;;;;;37.00;36.33;;;;;2.92;70.17;101646.75;4890877;29;8860;-82
2021/03/13 07:23:21;;;;;;;;;41.00;36.00;;;;;2.78;70.43;101640.84;4887067;29;8887;-83
2021/03/13 07:26:05;;;;;;;;;40.67;35.33;;;;;3.00;69.83;101649.03;4867754;29;8887;-82
2021/03/13 07:28:33;;;;;;;;;45.33;44.00;;;;;3.02;70.10;101644.13;4869383;29;8888;-81
2021/03/13 07:31:03;;;;;;;;;28.33;28.33;;;;;3.06;70.24;101648.78;4874392;29;8960;-82
2021/03/13 07:33:32;;;;;;;;;34.67;34.67;;;;;3.11;70.08;101644.47;4872572;29;8860;-82
2021/03/13 07:36:17;;;;;;;;;38.33;37.00;;;;;3.20;70.14;101651.13;4875515;29;8920;-84
2021/03/13 07:39:18;;;;;;;;;35.00;33.33;;;;;3.24;69.97;101650.34;4876768;29;8908;-83
2021/03/13 07:41:56;;;;;;;;;29.33;29.33;;;;;3.24;69.96;101658.56;4884581;29;8869;-84
2021/03/13 07:44:29;;;;;;;;;35.33;33.67;;;;;3.13;70.87;101662.25;4872872;29;8869;-83
2021/03/13 07:47:01;;;;;;;;;56.00;48.33;;;;;3.21;71.89;101650.84;4884660;29;9110;-82
2021/03/13 07:49:44;;;;;;;;;65.00;52.00;;;;;3.29;74.14;101655.03;4882335;29;8872;-83
2021/03/13 07:52:18;;;;;;;;;50.00;42.00;;;;;3.44;70.86;101649.72;4877529;29;8901;-82
2021/03/13 07:55:02;;;;;;;;;35.67;35.00;;;;;3.41;70.19;101642.03;4885574;29;8879;-83
2021/03/13 07:57:53;;;;;;;;;38.00;38.00;;;;;3.42;70.01;101645.59;4889548;29;8883;-83
2021/03/13 08:00:41;;;;;;;;;36.00;36.00;;;;;3.44;70.64;101641.50;4878120;29;8885;-82
2021/03/13 08:03:34;;;;;;;;;41.33;38.33;;;;;3.51;72.32;101638.56;4889911;29;8896;-84
2021/03/13 08:06:06;;;;;;;;;46.00;44.33;;;;;3.56;69.63;101644.06;4858832;29;8888;-83
2021/03/13 08:08:47;;;;;;;;;35.33;35.00;;;;;3.65;69.41;101638.94;4873746;29;8879;-85
2021/03/13 08:11:16;;;;;;;;;40.67;39.00;;;;;3.77;69.43;101645.06;4886913;29;8889;-83
2021/03/13 08:13:48;;;;;;;;;42.67;39.33;;;;;3.82;68.86;101645.91;4891056;29;8860;-75
2021/03/13 08:16:45;;;;;;;;;39.00;39.00;;;;;3.88;68.94;101636.66;4870651;29;9646;-78
2021/03/13 08:19:44;;;;;;;;;34.33;34.00;;;;;3.83;69.66;101635.78;4884210;29;11737;-78
2021/03/13 08:22:21;;;;;;;;;30.67;30.33;;;;;3.81;68.91;101636.06;4871282;29;8885;-79
2021/03/13 08:24:51;;;;;;;;;37.00;35.00;;;;;3.94;69.23;101642.19;4876595;29;11726;-78
2021/03/13 08:27:38;;;;;;;;;28.00;28.00;;;;;3.92;68.38;101639.72;4885079;29;8890;-79
2021/03/13 08:30:25;;;;;;;;;41.00;40.00;;;;;4.04;68.56;101645.81;4884652;29;11749;-78
2021/03/13 08:33:09;;;;;;;;;29.00;29.00;;;;;3.96;68.87;101646.28;4867404;29;8856;-79
2021/03/13 08:35:48;;;;;;;;;38.00;35.67;;;;;4.03;68.66;101637.84;4871229;29;8896;-80
2021/03/13 08:38:19;;;;;;;;;35.67;32.67;;;;;4.08;68.76;101644.19;4885353;29;11727;-80
2021/03/13 08:40:54;;;;;;;;;40.67;38.33;;;;;4.11;68.78;101637.34;4871698;29;12506;-79
2021/03/13 08:43:39;;;;;;;;;35.00;35.00;;;;;4.10;68.83;101647.50;4888514;29;11825;-78
2021/03/13 08:46:48;;;;;;;;;42.67;40.33;;;;;4.12;68.81;101647.22;4869919;29;11768;-78
2021/03/13 08:49:23;;;;;;;;;40.67;34.67;;;;;4.35;68.48;101657.75;4866187;29;11716;-80
2021/03/13 08:52:05;;;;;;;;;34.33;32.33;;;;;4.26;68.29;101650.31;4881611;29;11804;-80
2021/03/13 08:54:40;;;;;;;;;36.00;35.00;;;;;4.35;68.25;101655.03;4881778;29;11683;-79
2021/03/13 08:57:18;;;;;;;;;36.00;34.00;;;;;4.45;68.25;101652.34;4868960;29;11749;-79
2021/03/13 08:59:54;;;;;;;;;39.67;37.33;;;;;4.52;67.99;101646.59;4874443;29;8964;-79
2021/03/13 09:02:33;;;;;;;;;37.00;35.25;;;;;4.58;67.66;101653.75;4886948;29;11743;-79
2021/03/13 09:05:04;;;;;;;;;33.33;31.67;;;;;4.65;67.91;101642.56;4867240;29;11743;-79
2021/03/13 09:07:48;;;;;;;;;37.67;37.00;;;;;4.67;68.34;101646.66;4891155;29;11750;-79
2021/03/13 09:10:17;;;;;;;;;26.67;24.67;;;;;4.56;67.98;101645.00;4872191;29;11706;-82
2021/03/13 09:12:47;;;;;;;;;33.00;31.50;;;;;4.68;67.63;101644.78;4886918;29;11703;-80
2021/03/13 09:15:18;;;;;;;;;36.67;36.00;;;;;4.72;68.52;101649.44;4891404;29;11738;-81
2021/03/13 09:17:48;;;;;;;;;39.25;36.00;;;;;4.79;68.35;101646.44;4868861;29;11747;-80
2021/03/13 09:20:17;;;;;;;;;28.50;28.50;;;;;4.71;68.20;101636.84;4875153;29;11723;-80
2021/03/13 09:23:00;;;;;;;;;34.00;34.00;;;;;4.78;68.21;101633.03;4886749;29;11751;-81
2021/03/13 09:25:38;;;;;;;;;41.50;36.25;;;;;4.67;68.29;101632.97;4863998;29;11828;-80
2021/03/13 09:28:05;;;;;;;;;31.75;31.25;;;;;4.72;68.63;101633.00;4892448;29;11709;-80
2021/03/13 09:31:01;;;;;;;;;30.00;26.75;;;;;4.72;68.52;101633.00;4891590;29;11793;-80
2021/03/13 09:33:32;;;;;;;;;32.00;31.25;;;;;4.60;69.31;101635.16;4874502;29;11755;-81
2021/03/13 09:36:12;;;;;;;;;38.67;35.67;;;;;4.72;69.14;101634.91;4876791;29;11706;-82
2021/03/13 09:39:09;;;;;;;;;37.75;36.50;;;;;4.63;69.71;101631.88;4889423;29;11795;-81
2021/03/13 09:42:10;;;;;;;;;26.50;26.50;;;;;4.65;68.71;101632.41;4891870;29;11739;-82
2021/03/13 09:45:16;;;;;;;;;36.75;35.75;;;;;4.81;69.52;101627.81;4891145;29;11774;-80
2021/03/13 09:48:13;;;;;;;;;24.00;23.75;;;;;4.91;68.54;101630.59;4869641;29;11800;-81
2021/03/13 09:51:09;;;;;;;;;33.75;32.00;;;;;5.05;68.65;101625.41;4897369;29;11718;-78
2021/03/13 09:54:05;;;;;;;;;36.75;36.25;;;;;5.05;68.67;101617.19;4881974;29;11749;-79
2021/03/13 09:56:33;;;;;;;;;41.25;33.75;;;;;5.20;68.96;101614.47;4890979;29;11728;-79
2021/03/13 09:59:24;;;;;;;;;9.75;6.50;;;;;5.29;68.90;101625.72;4879524;29;11719;-78
2021/03/13 10:02:21;;;;;;;;;33.25;26.75;;;;;5.46;67.84;101609.03;4877800;29;11663;-80
2021/03/13 10:04:50;;;;;;;;;31.00;31.00;;;;;5.51;67.80;101614.47;4860348;29;11763;-80
2021/03/13 10:07:43;;;;;;;;;26.25;24.00;;;;;5.63;67.66;101595.84;4887046;29;11741;-80
2021/03/13 10:10:21;;;;;;;;;33.00;33.00;;;;;5.79;67.16;101597.47;4872953;29;12478;-81
2021/03/13 10:12:51;;;;;;;;;28.75;28.00;;;;;5.55;67.49;101599.94;4889503;29;11838;-79
2021/03/13 10:15:25;;;;;;;;;34.75;32.50;;;;;5.90;67.22;101591.94;4858139;29;11733;-80
2021/03/13 10:18:17;;;;;;;;;32.75;31.00;;;;;5.95;66.85;101597.47;4870759;29;11724;-81
2021/03/13 10:20:57;;;;;;;;;31.50;31.50;;;;;6.01;66.88;101594.44;4872000;29;11775;-80
2021/03/13 10:23:35;;;;;;;;;30.00;30.00;;;;;6.16;66.58;101596.31;4880875;29;11804;-80
2021/03/13 10:26:11;;;;;;;;;29.75;29.50;;;;;6.25;66.81;101596.56;4889486;29;11807;-79
2021/03/13 10:28:55;;;;;;;;;33.75;30.00;;;;;6.26;65.86;101596.28;4887541;29;11705;-79
2021/03/13 10:32:03;;;;;;;;;26.25;23.75;;;;;6.24;65.65;101598.50;4879460;29;11852;-80
2021/03/13 10:35:19;;;;;;;;;31.50;27.50;;;;;6.59;66.15;101596.69;4888414;29;11706;-78
2021/03/13 10:38:20;;;;;;;;;25.50;25.50;;;;;6.65;65.50;101592.81;4887990;29;11711;-80
2021/03/13 10:41:23;;;;;;;;;31.75;29.00;;;;;7.09;63.72;101587.34;4874476;29;11763;-82
2021/03/13 10:44:19;;;;;;;;;30.00;27.00;;;;;7.17;64.19;101577.66;4875594;29;11709;-81
2021/03/13 10:46:46;;;;;;;;;29.50;28.50;;;;;7.25;63.49;101574.28;4858648;29;11771;-82
2021/03/13 10:49:59;;;;;;;;;31.25;29.50;;;;;7.03;63.90;101574.72;4888666;29;11771;-80
2021/03/13 10:52:56;;;;;;;;;23.75;23.75;;;;;7.48;62.59;101569.97;4891646;29;11757;-81
2021/03/13 10:55:53;;;;;;;;;25.25;23.50;;;;;7.46;62.50;101561.19;4882356;29;11749;-82
2021/03/13 10:58:58;;;;;;;;;27.75;27.75;;;;;7.63;62.61;101563.50;4896110;29;11726;-79
2021/03/13 11:01:28;;;;;;;;;33.00;25.75;;;;;7.71;62.98;101560.94;4872413;29;11765;-79
2021/03/13 11:04:23;;;;;;;;;26.25;25.50;;;;;7.68;62.58;101560.72;4873602;29;11764;-80
2021/03/13 11:07:20;;;;;;;;;27.00;25.50;;;;;7.78;61.85;101544.91;4884600;29;11827;-77
2021/03/13 11:10:24;;;;;;;;;24.00;24.00;;;;;7.66;61.91;101549.16;4889834;29;11712;-78
2021/03/13 11:13:23;;;;;;;;;31.75;28.25;;;;;7.44;63.16;101546.91;4885911;29;12533;-79
2021/03/13 11:16:22;;;;;;;;;26.75;26.75;;;;;7.52;62.83;101547.09;4890846;29;11722;-80
2021/03/13 11:19:14;;;;;;;;;27.75;26.25;;;;;7.61;62.60;101539.03;4876780;29;11724;-79
2021/03/13 11:22:12;;;;;;;;;26.50;24.25;;;;;7.62;62.78;101543.44;4870631;29;11797;-79
2021/03/13 11:25:19;;;;;;;;;34.75;32.25;;;;;7.66;62.41;101532.63;4870000;29;11875;-79
2021/03/13 11:28:03;;;;;;;;;28.50;24.75;;;;;7.84;61.50;101525.59;4882797;29;11728;-80
2021/03/13 11:31:00;;;;;;;;;26.00;26.00;;;;;7.82;61.87;101534.16;4875748;29;11781;-80
2021/03/13 11:33:56;;;;;;;;;31.75;29.50;;;;;7.85;62.14;101522.53;4886464;29;11694;-81
2021/03/13 11:36:53;;;;;;;;;25.00;25.00;;;;;8.19;61.11;101521.56;4870936;29;11740;-82
2021/03/13 11:39:32;;;;;;;;;;;;;;;;;;;;;
2021/03/13 11:42:32;;;;;;;;;19.75;19.75;;;;;8.38;60.78;101508.69;4889841;29;11741;-84
2021/03/13 11:45:29;;;;;;;;;11.75;11.75;;;;;8.13;60.54;101509.81;4883214;29;11709;-84
2021/03/13 11:48:28;;;;;;;;;19.50;19.50;;;;;8.30;59.99;101496.38;4873184;29;11775;-85
2021/03/13 11:51:29;;;;;;;;;26.75;26.75;;;;;8.68;59.82;101515.72;4876085;29;11733;-86
2021/03/13 11:54:37;;;;;;;;;22.25;19.75;;;;;8.41;59.29;101512.78;4874254;29;11740;-84
2021/03/13 11:57:35;;;;;;;;;20.50;20.00;;;;;8.64;59.51;101514.66;4875584;29;11694;-83
2021/03/13 12:00:24;;;;;;;;;21.25;21.25;;;;;8.55;59.91;101517.28;4871245;29;11728;-84
2021/03/13 12:03:21;;;;;;;;;21.75;21.50;;;;;8.62;58.98;101514.97;4887204;29;11766;-83
2021/03/13 12:06:18;;;;;;;;;24.00;23.75;;;;;8.62;60.21;101519.66;4880941;29;11807;-81
2021/03/13 12:09:22;;;;;;;;;27.00;25.75;;;;;8.78;59.62;101523.03;4875441;29;11722;-84
2021/03/13 12:12:19;;;;;;;;;21.50;21.50;;;;;8.81;59.62;101514.13;4872904;29;12503;-80
2021/03/13 12:15:23;;;;;;;;;22.50;22.50;;;;;8.86;59.66;101519.59;4886607;29;11709;-84
2021/03/13 12:18:18;;;;;;;;;21.25;20.25;;;;;8.86;59.43;101530.63;4876499;29;12558;-86
2021/03/13 12:21:00;;;;;;;;;16.00;16.00;;;;;8.88;59.29;101528.38;4877592;29;11646;-83
2021/03/13 12:23:56;;;;;;;;;26.00;26.00;;;;;8.92;59.31;101534.94;4874110;29;11669;-83
2021/03/13 12:26:53;;;;;;;;;26.00;24.50;;;;;8.80;59.79;101535.38;4863179;29;11811;-84
2021/03/13 12:29:50;;;;;;;;;26.00;25.25;;;;;8.50;59.62;101538.56;4875170;29;11726;-85
2021/03/13 12:32:54;;;;;;;;;25.50;24.00;;;;;8.20;59.58;101545.25;4885056;29;11685;-85
2021/03/13 12:36:04;;;;;;;;;24.00;23.50;;;;;8.25;60.39;101543.28;4862534;29;11722;-88
2021/03/13 12:38:47;;;;;;;;;22.25;22.25;;;;;8.26;60.73;101544.91;4866285;29;11708;-87
2021/03/13 12:41:35;;;;;;;;;22.25;20.25;;;;;8.41;60.06;101537.59;4871790;29;11787;-84
2021/03/13 12:44:34;;;;;;;;;20.25;20.25;;;;;8.42;59.71;101528.22;4874782;29;11811;-86
2021/03/13 12:47:19;;;;;;;;;20.75;20.75;;;;;8.39;59.68;101537.06;4869983;29;11782;-79
2021/03/13 12:50:15;;;;;;;;;20.75;19.75;;;;;8.32;60.55;101540.97;4890002;29;11708;-78
2021/03/13 12:52:59;;;;;;;;;21.25;21.00;;;;;8.35;59.61;101543.16;4883717;29;11799;-79
2021/03/13 12:55:56;;;;;;;;;31.25;28.75;;;;;8.43;59.85;101538.94;4886754;29;11794;-80
2021/03/13 12:58:42;;;;;;;;;26.00;25.00;;;;;8.48;59.50;101541.63;4887202;29;11829;-79
2021/03/13 13:01:38;;;;;;;;;21.00;21.00;;;;;8.50;59.66;101528.38;4882972;29;11703;-82
2021/03/13 13:04:33;;;;;;;;;22.50;21.75;;;;;8.68;59.36;101537.78;4869187;29;11702;-81
2021/03/13 13:07:29;;;;;;;;;36.50;33.00;;;;;8.73;59.35;101537.69;4882246;29;11663;-78
2021/03/13 13:10:22;;;;;;;;;32.75;31.25;;;;;8.80;59.66;101534.56;4867748;29;11897;-81
2021/03/13 13:13:23;;;;;;;;;27.75;25.25;;;;;8.88;59.32;101531.13;4865405;29;11724;-81